Time;durP1;ratioP1;P1;durP2;ratioP2;P2;SDS_P1;SDS_P2;PMS_P1;PMS_P2;Temp;Humidity;BMP_temperature;BMP_pressure;BME280_temperature;BME280_humidity;BME280_pressure;Samples;Min_cycle;Max_cycle;Signal;HPM_P1;HPM_P2
2022/01/08 00:00:09;;;;;;;5.57;4.17;;;1.70;99.90;1.30;100059.00;;;;5006350;27;89446;-70
2022/01/08 00:02:35;;;;;;;7.27;3.47;;;1.60;99.90;1.30;100063.00;;;;5006409;27;89147;-71
2022/01/08 00:05:00;;;;;;;4.10;3.07;;;1.60;99.90;1.30;100059.00;;;;4995341;27;89005;-70
2022/01/08 00:07:27;;;;;;;6.63;3.60;;;1.60;99.90;1.20;100063.00;;;;5013180;27;109590;-72
2022/01/08 00:09:53;;;;;;;6.10;4.13;;;1.50;99.90;1.20;100061.00;;;;5016147;27;88187;-73
2022/01/08 00:12:19;;;;;;;5.93;3.83;;;1.60;99.90;1.20;100083.00;;;;5016701;27;87786;-74
2022/01/08 00:14:45;;;;;;;4.80;3.70;;;1.50;99.90;1.20;100070.00;;;;5017962;27;87842;-74
2022/01/08 00:17:11;;;;;;;7.07;3.97;;;1.50;99.90;1.20;100069.00;;;;5018009;27;87773;-74
2022/01/08 00:19:37;;;;;;;4.50;3.53;;;1.50;99.90;1.30;100073.00;;;;5017030;27;117864;-74
2022/01/08 00:22:03;;;;;;;7.60;3.73;;;2.10;99.90;1.30;100065.00;;;;5016958;27;101902;-74
2022/01/08 00:24:28;;;;;;;7.27;4.10;;;1.60;99.90;1.30;100068.00;;;;4994131;28;88246;-74
2022/01/08 00:26:54;;;;;;;8.00;4.67;;;1.70;99.90;1.30;100063.00;;;;4977568;28;108314;-75
2022/01/08 00:29:20;;;;;;;5.03;3.73;;;1.50;99.90;1.30;100059.00;;;;4957303;28;108683;-75
2022/01/08 00:31:45;;;;;;;5.53;3.70;;;1.60;99.90;1.40;100063.00;;;;4986147;28;118230;-74
2022/01/08 00:34:11;;;;;;;4.47;3.40;;;2.20;99.90;1.40;100067.00;;;;5013802;27;111097;-75
2022/01/08 00:36:37;;;;;;;5.33;3.70;;;2.20;99.90;1.40;100062.00;;;;5015625;27;108010;-75
2022/01/08 00:39:04;;;;;;;3.70;3.27;;;1.60;99.90;1.30;100063.00;;;;4996243;27;118796;-74
2022/01/08 00:41:31;;;;;;;10.00;4.00;;;2.50;99.90;1.30;100056.00;;;;4977853;27;117930;-73
2022/01/08 00:43:56;;;;;;;4.97;3.73;;;1.60;99.90;1.30;100052.00;;;;4978720;28;87946;-74
2022/01/08 00:46:22;;;;;;;5.70;3.73;;;1.90;99.90;1.30;100048.00;;;;4996880;28;108554;-74
2022/01/08 00:48:48;;;;;;;4.43;3.70;;;1.60;99.90;1.30;100056.00;;;;4994986;28;88347;-74
2022/01/08 00:51:14;;;;;;;3.73;3.43;;;2.20;99.90;1.30;100053.00;;;;4997176;28;88157;-72
2022/01/08 00:53:40;;;;;;;6.50;3.60;;;1.50;99.90;1.30;100064.00;;;;5014430;27;110858;-75
2022/01/08 00:56:06;;;;;;;5.00;3.80;;;1.60;99.90;1.30;100062.00;;;;4998054;27;87538;-73
2022/01/08 00:58:32;;;;;;;4.03;2.83;;;1.50;99.90;1.30;100055.00;;;;4983944;28;88180;-72
2022/01/08 01:00:58;;;;;;;3.90;3.50;;;1.60;99.90;1.30;100054.00;;;;4997578;27;87986;-72
2022/01/08 01:03:23;;;;;;;3.63;2.83;;;1.70;99.90;1.40;100048.00;;;;4993106;28;87992;-75
2022/01/08 01:05:49;;;;;;;2.70;2.37;;;1.70;99.90;1.40;100055.00;;;;4992343;27;109087;-73
2022/01/08 01:08:15;;;;;;;3.73;2.90;;;1.70;99.90;1.40;100051.00;;;;4978436;28;105749;-72
2022/01/08 01:10:40;;;;;;;3.03;2.53;;;2.70;99.90;1.50;100047.00;;;;4996757;28;116992;-72
2022/01/08 01:13:07;;;;;;;6.57;2.67;;;1.80;99.90;1.50;100040.00;;;;4996561;27;110218;-74
2022/01/08 01:15:33;;;;;;;5.07;3.00;;;1.70;99.90;1.60;100035.00;;;;4979349;28;87660;-75
2022/01/08 01:17:59;;;;;;;3.63;2.67;;;1.80;99.90;1.60;100028.00;;;;4976779;28;97704;-73
2022/01/08 01:20:25;;;;;;;2.73;2.47;;;1.80;99.90;1.60;100029.00;;;;4996512;27;104035;-72
2022/01/08 01:25:54;;;;;;;4.67;2.83;;;1.90;99.90;1.60;100019.00;;;;5006648;27;88473;-71
2022/01/08 01:41:45;;;;;;;5.93;3.33;;;1.90;99.90;1.70;100016.00;;;;4998539;27;87666;-72
2022/01/08 01:47:02;;;;;;;3.33;2.40;;;2.00;99.90;1.70;100006.00;;;;4996238;27;87725;-73
2022/01/08 01:49:40;;;;;;;4.40;2.43;;;2.00;99.90;1.70;100006.00;;;;5017105;27;88142;-73
2022/01/08 01:52:09;;;;;;;3.40;2.67;;;2.10;99.90;1.70;100009.00;;;;4993341;28;101640;-73
2022/01/08 01:54:36;;;;;;;5.73;3.03;;;1.90;99.90;1.70;99999.00;;;;4996618;28;87861;-73
2022/01/08 01:57:04;;;;;;;5.37;2.50;;;2.00;99.90;1.70;99997.00;;;;4988932;28;87759;-71
2022/01/08 01:59:33;;;;;;;5.60;3.27;;;2.00;99.90;1.70;99996.00;;;;4996646;28;88694;-73
2022/01/08 02:01:59;;;;;;;4.13;2.60;;;1.90;99.90;1.70;99993.00;;;;4962180;28;90014;-72
2022/01/08 02:04:26;;;;;;;2.77;2.40;;;2.00;99.90;1.70;99998.00;;;;4996342;27;97143;-71
2022/01/08 02:06:52;;;;;;;6.37;3.60;;;2.60;99.90;1.60;99996.00;;;;5010231;27;87763;-73
2022/01/08 02:09:18;;;;;;;3.03;2.57;;;1.90;99.90;1.60;99996.00;;;;5015262;27;105155;-74
2022/01/08 02:12:01;;;;;;;3.30;2.37;;;1.20;99.90;1.60;99988.00;;;;5016054;27;89597;-73
2022/01/08 02:14:30;;;;;;;6.43;3.20;;;1.90;99.90;1.60;99992.00;;;;5010034;27;87731;-73
2022/01/08 02:16:56;;;;;;;3.07;2.50;;;2.50;99.90;1.50;99990.00;;;;4997658;27;87854;-73
2022/01/08 02:19:23;;;;;;;4.23;2.73;;;2.40;99.90;1.50;99990.00;;;;4997208;27;87992;-73
2022/01/08 02:21:57;;;;;;;3.20;2.33;;;1.80;99.90;1.40;99990.00;;;;4996208;27;88221;-72
2022/01/08 02:24:25;;;;;;;3.93;2.20;;;1.70;99.90;1.30;99979.00;;;;4977078;28;88039;-73
2022/01/08 02:26:51;;;;;;;4.43;2.83;;;1.70;99.90;1.30;99984.00;;;;4996537;27;86919;-73
2022/01/08 02:29:20;;;;;;;3.57;2.87;;;1.50;99.90;1.10;99966.00;;;;4976833;28;95340;-72
2022/01/08 02:32:15;;;;;;;2.70;2.13;;;2.10;99.90;1.00;99972.00;;;;4995133;27;103889;-74
2022/01/08 02:34:43;;;;;;;3.13;2.30;;;1.40;99.90;1.00;99961.00;;;;4992958;27;88645;-72
2022/01/08 02:37:09;;;;;;;4.07;2.30;;;1.30;99.90;0.90;99966.00;;;;5008103;27;87879;-72
2022/01/08 02:39:41;;;;;;;2.57;2.37;;;2.00;99.90;0.80;99967.00;;;;5014519;27;115921;-72
2022/01/08 02:42:11;;;;;;;2.10;2.00;;;1.10;99.90;0.80;99968.00;;;;4995339;27;88149;-74
2022/01/08 02:44:37;;;;;;;2.97;2.67;;;1.50;99.90;0.70;99967.00;;;;5015838;27;87922;-74
2022/01/08 02:47:03;;;;;;;6.03;3.00;;;1.00;99.90;0.60;99970.00;;;;5014887;27;95921;-74
2022/01/08 02:49:36;;;;;;;3.07;2.60;;;1.00;99.90;0.50;99959.00;;;;5012667;27;105742;-74
2022/01/08 02:52:04;;;;;;;4.20;3.00;;;0.80;99.90;0.50;99960.00;;;;5016066;27;87613;-74
2022/01/08 02:54:29;;;;;;;4.77;2.90;;;0.80;99.90;0.40;99967.00;;;;5012318;27;99977;-73
2022/01/08 02:56:56;;;;;;;5.10;3.37;;;1.30;99.90;0.40;99958.00;;;;5014992;27;108758;-73
2022/01/08 02:59:21;;;;;;;4.73;3.03;;;1.30;99.90;0.30;99955.00;;;;4996036;27;88998;-74
2022/01/08 03:01:47;;;;;;;6.37;3.20;;;1.20;99.90;0.30;99960.00;;;;5012691;27;119574;-74
2022/01/08 03:04:14;;;;;;;4.43;3.50;;;0.50;99.90;0.20;99953.00;;;;4995909;27;87794;-73
2022/01/08 03:06:40;;;;;;;4.50;3.33;;;0.50;99.90;0.10;99948.00;;;;5015429;27;87868;-70
2022/01/08 03:09:07;;;;;;;4.27;3.20;;;0.50;99.90;0.00;99939.00;;;;5015365;27;87847;-72
2022/01/08 03:11:33;;;;;;;6.27;3.13;;;0.30;99.90;0.00;99949.00;;;;5010777;27;87764;-72
2022/01/08 03:13:58;;;;;;;4.67;3.27;;;0.40;99.90;-0.10;99943.00;;;;5013490;27;110282;-73
2022/01/08 03:16:25;;;;;;;4.27;3.30;;;0.20;99.90;-0.10;99942.00;;;;5015807;27;86947;-73
2022/01/08 03:18:51;;;;;;;4.37;3.10;;;0.20;99.90;-0.20;99948.00;;;;4998936;27;89814;-74
2022/01/08 03:21:21;;;;;;;4.73;3.23;;;0.70;99.90;-0.30;99944.00;;;;4976648;28;87964;-73
2022/01/08 03:24:01;;;;;;;3.90;2.77;;;0.10;99.90;-0.30;99945.00;;;;5012669;27;88879;-73
2022/01/08 03:26:29;;;;;;;4.17;3.03;;;0.60;99.90;-0.30;99948.00;;;;5014157;27;87701;-73
2022/01/08 03:28:56;;;;;;;3.70;3.10;;;0.00;99.90;-0.40;99938.00;;;;4994371;28;101442;-73
2022/01/08 03:31:25;;;;;;;6.37;3.70;;;0.90;99.90;-0.40;99942.00;;;;4994197;28;96968;-73
2022/01/08 03:33:54;;;;;;;4.37;3.13;;;0.80;99.90;-0.40;99939.00;;;;4994659;27;87891;-73
2022/01/08 03:36:22;;;;;;;7.83;3.73;;;0.00;99.90;-0.50;99937.00;;;;4995588;27;101253;-73
2022/01/08 03:38:50;;;;;;;4.10;3.70;;;0.30;99.90;-0.50;99936.00;;;;5001441;27;88617;-73
2022/01/08 03:41:16;;;;;;;7.47;3.60;;;0.00;99.90;-0.50;99932.00;;;;5014867;27;87872;-73
2022/01/08 03:43:42;;;;;;;4.57;3.70;;;-0.20;99.90;-0.60;99934.00;;;;4995855;27;87815;-72
2022/01/08 03:46:10;;;;;;;5.57;3.53;;;0.60;99.90;-0.60;99937.00;;;;4993657;28;97904;-72
2022/01/08 03:48:48;;;;;;;5.27;3.87;;;0.30;99.90;-0.60;99934.00;;;;4993566;27;88896;-71
2022/01/08 03:51:14;;;;;;;4.20;3.80;;;0.80;99.90;-0.60;99934.00;;;;4993376;28;89924;-71
2022/01/08 03:53:41;;;;;;;7.37;4.00;;;-0.10;99.90;-0.50;99945.00;;;;4993683;27;87997;-72
2022/01/08 03:56:07;;;;;;;8.77;3.83;;;0.40;99.90;-0.50;99946.00;;;;4994923;28;87867;-72
2022/01/08 03:58:33;;;;;;;6.10;4.37;;;-0.20;99.90;-0.40;99941.00;;;;4993523;27;97283;-72
2022/01/08 04:00:59;;;;;;;6.03;3.73;;;-0.10;99.90;-0.40;99944.00;;;;4994480;28;87886;-71
2022/01/08 04:03:25;;;;;;;5.73;3.80;;;-0.10;99.90;-0.40;99935.00;;;;4993729;27;87836;-71
2022/01/08 04:05:51;;;;;;;5.33;4.00;;;-0.10;99.90;-0.40;99933.00;;;;4993424;27;108441;-71
2022/01/08 04:08:18;;;;;;;6.77;4.30;;;-0.10;99.90;-0.30;99945.00;;;;4995541;27;106945;-71
2022/01/08 04:10:44;;;;;;;9.30;4.33;;;0.00;99.90;-0.30;99953.00;;;;4995374;27;87847;-72
2022/01/08 04:13:14;;;;;;;6.87;3.70;;;0.60;99.90;-0.30;99950.00;;;;4993465;27;88919;-71
2022/01/08 04:15:43;;;;;;;6.10;3.97;;;0.00;99.90;-0.30;99949.00;;;;4994174;28;87919;-72
2022/01/08 04:18:10;;;;;;;7.10;3.70;;;0.00;99.90;-0.30;99948.00;;;;4975652;28;88792;-72
2022/01/08 04:20:50;;;;;;;5.63;3.80;;;0.00;99.90;-0.20;99942.00;;;;5011016;27;87844;-72
2022/01/08 04:23:20;;;;;;;5.97;3.40;;;0.10;99.90;-0.20;99947.00;;;;5014086;27;89201;-71
2022/01/08 04:25:46;;;;;;;6.23;3.73;;;0.10;99.90;-0.20;99951.00;;;;5014181;27;87562;-71
2022/01/08 04:28:12;;;;;;;4.17;3.53;;;0.10;99.90;-0.10;99953.00;;;;4994855;27;88829;-72
2022/01/08 04:30:38;;;;;;;5.40;3.33;;;0.10;99.90;-0.10;99954.00;;;;5013490;27;117307;-71
2022/01/08 04:33:04;;;;;;;9.00;4.63;;;0.20;99.90;0.00;99955.00;;;;5011814;27;89675;-71
2022/01/08 04:35:30;;;;;;;5.43;4.00;;;1.00;99.90;0.00;99957.00;;;;5004897;27;107308;-72
2022/01/08 04:37:55;;;;;;;4.33;3.03;;;0.60;99.90;0.10;99965.00;;;;5012789;27;89717;-72
2022/01/08 04:40:21;;;;;;;5.00;3.87;;;0.30;99.90;0.10;99951.00;;;;5011288;27;118608;-72
2022/01/08 04:42:47;;;;;;;4.33;3.80;;;0.40;99.90;0.20;99962.00;;;;4983197;28;109906;-71
2022/01/08 04:45:12;;;;;;;5.13;3.13;;;0.50;99.90;0.20;99955.00;;;;4993027;28;107832;-70
2022/01/08 04:47:39;;;;;;;5.23;3.63;;;0.50;99.90;0.30;99950.00;;;;5002797;27;88096;-70
2022/01/08 04:50:05;;;;;;;8.07;4.17;;;1.70;99.90;0.40;99956.00;;;;5013618;27;88665;-71
2022/01/08 04:52:31;;;;;;;4.83;3.93;;;0.60;99.90;0.40;99952.00;;;;5013558;27;96736;-71
2022/01/08 04:54:56;;;;;;;6.17;4.47;;;1.00;99.90;0.40;99948.00;;;;5014070;27;87295;-71
2022/01/08 04:57:22;;;;;;;7.50;4.07;;;0.70;99.90;0.50;99948.00;;;;5016623;27;117753;-71
2022/01/08 04:59:48;;;;;;;5.27;4.17;;;0.80;99.90;0.50;99940.00;;;;5016866;27;88622;-70
2022/01/08 05:02:14;;;;;;;4.90;3.17;;;0.80;99.90;0.60;99948.00;;;;5015488;27;110479;-72
2022/01/08 05:04:40;;;;;;;5.77;3.73;;;0.90;99.90;0.60;99948.00;;;;5016538;27;95843;-73
2022/01/08 05:07:05;;;;;;;4.77;3.63;;;0.90;99.90;0.70;99940.00;;;;5016501;27;101606;-72
2022/01/08 05:09:31;;;;;;;6.10;3.97;;;0.90;99.90;0.80;99941.00;;;;5014582;27;102588;-71
2022/01/08 05:11:57;;;;;;;3.77;3.20;;;1.00;99.90;0.80;99945.00;;;;4981022;28;102212;-70
2022/01/08 05:14:23;;;;;;;4.63;3.33;;;1.00;99.90;0.80;99939.00;;;;4996049;28;107067;-70
2022/01/08 05:16:56;;;;;;;5.07;3.33;;;1.10;99.90;0.80;99937.00;;;;4996711;28;89017;-70
2022/01/08 05:19:31;;;;;;;6.50;3.80;;;1.10;99.90;0.90;99947.00;;;;4975569;28;88370;-70
2022/01/08 05:21:58;;;;;;;4.73;3.50;;;1.10;99.90;0.90;99948.00;;;;5000472;27;87957;-71
2022/01/08 05:24:24;;;;;;;3.80;3.00;;;1.20;99.90;0.90;99945.00;;;;4982299;28;87805;-70
2022/01/08 05:26:49;;;;;;;4.50;2.90;;;1.20;99.90;0.90;99949.00;;;;4995161;27;88912;-70
2022/01/08 05:29:15;;;;;;;4.90;3.27;;;1.20;99.90;1.00;99949.00;;;;5015012;27;89400;-70
2022/01/08 05:31:41;;;;;;;4.73;2.77;;;1.20;99.90;0.90;99944.00;;;;5015834;27;109640;-70
2022/01/08 05:34:07;;;;;;;4.77;3.23;;;1.20;99.90;1.00;99945.00;;;;5015693;27;108811;-70
2022/01/08 05:36:33;;;;;;;2.67;2.03;;;1.20;99.90;1.00;99942.00;;;;5015931;27;88404;-69
2022/01/08 05:38:58;;;;;;;3.80;2.90;;;1.30;99.90;1.00;99943.00;;;;5014984;27;116955;-69
2022/01/08 05:41:24;;;;;;;2.90;2.57;;;1.30;99.90;1.00;99948.00;;;;5014124;27;111161;-69
2022/01/08 05:43:50;;;;;;;4.80;2.67;;;1.30;99.90;1.00;99954.00;;;;5014867;27;87396;-70
2022/01/08 05:46:15;;;;;;;3.00;2.50;;;1.20;99.90;1.00;99943.00;;;;5015622;27;118103;-69
2022/01/08 05:48:41;;;;;;;3.10;2.27;;;1.30;99.90;1.10;99948.00;;;;5014829;27;117927;-68
2022/01/08 05:51:07;;;;;;;3.20;2.67;;;1.30;99.90;1.10;99948.00;;;;5014161;27;88664;-69
2022/01/08 05:53:33;;;;;;;4.73;2.63;;;1.40;99.90;1.10;99958.00;;;;5015612;27;95258;-69
2022/01/08 05:55:58;;;;;;;2.33;2.00;;;1.30;99.90;1.10;99959.00;;;;5015560;27;115506;-70
2022/01/08 05:58:24;;;;;;;3.27;2.17;;;1.40;99.90;1.10;99948.00;;;;5013332;27;117727;-69
2022/01/08 06:00:50;;;;;;;3.70;2.80;;;1.30;99.90;1.10;99952.00;;;;5015099;27;88168;-69
2022/01/08 06:03:17;;;;;;;3.10;2.10;;;1.40;99.90;1.10;99954.00;;;;5014996;27;109081;-70
2022/01/08 06:05:43;;;;;;;3.57;2.53;;;1.30;99.90;1.10;99959.00;;;;5014300;27;87757;-69
2022/01/08 06:08:08;;;;;;;3.00;2.47;;;1.50;99.90;1.10;99955.00;;;;5014838;27;88699;-69
2022/01/08 06:10:34;;;;;;;3.70;2.63;;;1.40;99.90;1.10;99950.00;;;;5013861;27;110007;-69
2022/01/08 06:13:00;;;;;;;3.70;2.23;;;1.30;99.90;1.10;99952.00;;;;5002347;27;87864;-69
2022/01/08 06:15:25;;;;;;;2.27;1.63;;;1.40;99.90;1.10;99947.00;;;;4994124;28;118930;-69
2022/01/08 06:17:51;;;;;;;8.07;5.07;;;2.40;99.90;1.10;99952.00;;;;4995044;27;119008;-70
2022/01/08 06:20:17;;;;;;;5.27;3.87;;;1.40;99.90;1.10;99949.00;;;;4996214;27;88288;-70
2022/01/08 06:22:42;;;;;;;10.10;4.63;;;2.30;99.90;1.10;99944.00;;;;4996484;27;87627;-70
2022/01/08 06:25:09;;;;;;;4.80;4.20;;;2.30;99.90;1.10;99950.00;;;;4976799;28;87902;-70
2022/01/08 06:27:34;;;;;;;6.30;5.03;;;1.40;99.90;1.10;99952.00;;;;5006474;27;88863;-70
2022/01/08 06:30:02;;;;;;;9.47;6.53;;;1.40;99.90;1.10;99948.00;;;;5016054;27;94158;-71
2022/01/08 06:32:28;;;;;;;8.20;5.83;;;1.70;99.90;1.10;99951.00;;;;5009173;27;87277;-70
2022/01/08 06:34:53;;;;;;;7.93;5.53;;;1.90;99.90;1.00;99948.00;;;;4992809;27;88799;-70
2022/01/08 06:37:19;;;;;;;5.17;4.63;;;1.30;99.90;1.00;99947.00;;;;5012858;27;87781;-71
2022/01/08 06:39:45;;;;;;;8.70;3.90;;;1.30;99.90;1.00;99944.00;;;;5014577;27;103523;-71
2022/01/08 06:42:10;;;;;;;5.83;4.03;;;2.20;99.90;1.00;99947.00;;;;5013863;27;87757;-70
2022/01/08 06:44:36;;;;;;;5.50;3.60;;;2.10;99.90;1.00;99948.00;;;;5011898;27;116587;-70
2022/01/08 06:47:02;;;;;;;4.63;3.87;;;1.90;99.90;1.00;99950.00;;;;5013605;27;117557;-70
2022/01/08 06:49:28;;;;;;;6.13;3.97;;;1.20;99.90;1.00;99948.00;;;;5014879;27;91628;-70
2022/01/08 06:51:53;;;;;;;4.80;3.50;;;1.20;99.90;1.00;99962.00;;;;5010919;27;108892;-70
2022/01/08 06:54:19;;;;;;;6.00;3.80;;;1.30;99.90;1.00;99959.00;;;;4998133;27;88314;-70
2022/01/08 06:56:45;;;;;;;5.80;4.43;;;1.40;99.90;1.00;99959.00;;;;5015298;27;88584;-69
2022/01/08 06:59:11;;;;;;;4.20;3.37;;;2.00;99.90;1.00;99956.00;;;;5014416;27;110137;-70
2022/01/08 07:01:36;;;;;;;7.53;5.77;;;2.00;99.90;1.00;99955.00;;;;5010212;27;110028;-71
2022/01/08 07:04:02;;;;;;;4.90;3.47;;;1.90;99.90;1.00;99954.00;;;;5009790;27;119253;-69
2022/01/08 07:06:28;;;;;;;3.60;3.30;;;1.30;99.90;1.00;99942.00;;;;5006575;27;90152;-69
2022/01/08 07:08:54;;;;;;;4.80;2.83;;;1.30;99.90;1.00;99947.00;;;;5004837;27;87811;-70
2022/01/08 07:11:20;;;;;;;4.90;4.33;;;1.30;99.90;0.90;99946.00;;;;5007267;27;87562;-70
2022/01/08 07:13:46;;;;;;;7.93;4.07;;;1.30;99.90;0.90;99945.00;;;;4992353;27;87879;-70
2022/01/08 07:16:11;;;;;;;6.10;4.87;;;1.20;99.90;0.90;99952.00;;;;4985444;27;116378;-70
2022/01/08 07:18:37;;;;;;;8.07;4.63;;;1.40;99.90;0.80;99965.00;;;;5005653;27;104405;-70
2022/01/08 07:21:03;;;;;;;8.30;4.83;;;1.20;99.90;0.80;99969.00;;;;5010401;27;109377;-69
2022/01/08 07:23:29;;;;;;;7.73;4.33;;;1.10;99.90;0.80;99970.00;;;;5009658;27;116847;-69
2022/01/08 07:25:54;;;;;;;7.13;4.87;;;1.10;99.90;0.80;99957.00;;;;4992096;27;118227;-69
2022/01/08 07:28:20;;;;;;;6.63;4.33;;;1.10;99.90;0.80;99978.00;;;;5010351;27;93906;-69
2022/01/08 07:30:46;;;;;;;7.53;4.93;;;1.10;99.90;0.80;99974.00;;;;5010689;27;107993;-69
2022/01/08 07:33:11;;;;;;;8.87;5.53;;;1.10;99.90;0.80;99981.00;;;;5006933;27;98110;-69
2022/01/08 07:35:37;;;;;;;7.33;4.73;;;1.10;99.90;0.80;99987.00;;;;5010546;27;102428;-70
2022/01/08 07:38:03;;;;;;;5.10;3.90;;;2.30;99.90;0.90;99973.00;;;;4997138;27;97081;-70
2022/01/08 07:40:29;;;;;;;10.10;4.77;;;1.80;99.90;0.90;99983.00;;;;4992854;27;87911;-71
2022/01/08 07:42:55;;;;;;;8.40;6.27;;;1.20;99.90;0.90;99992.00;;;;5009306;27;118677;-71
2022/01/08 07:45:21;;;;;;;8.30;5.67;;;1.20;99.90;0.80;99997.00;;;;5011923;27;87151;-71
2022/01/08 07:47:48;;;;;;;9.30;5.67;;;1.20;99.90;0.80;99999.00;;;;5005662;27;87800;-71
2022/01/08 07:50:14;;;;;;;13.03;8.43;;;1.60;99.90;0.70;99998.00;;;;5007662;27;89087;-71
2022/01/08 07:52:40;;;;;;;7.83;5.57;;;1.80;99.90;0.70;100014.00;;;;4987353;27;91094;-71
2022/01/08 07:55:06;;;;;;;7.10;4.17;;;1.50;99.90;0.70;99998.00;;;;5011269;27;89724;-70
2022/01/08 07:57:32;;;;;;;11.33;5.37;;;1.10;99.90;0.70;100002.00;;;;5004393;27;98420;-70
2022/01/08 07:59:57;;;;;;;6.60;4.63;;;1.60;99.90;0.70;99998.00;;;;5007448;27;108811;-70
2022/01/08 08:02:23;;;;;;;4.90;3.73;;;1.00;99.90;0.80;99989.00;;;;5008242;27;98576;-70
2022/01/08 08:04:49;;;;;;;5.30;3.57;;;1.10;99.90;0.80;99996.00;;;;5009804;27;88138;-70
2022/01/08 08:07:27;;;;;;;8.37;4.77;;;1.00;99.90;0.70;99988.00;;;;5003786;27;110441;-70
2022/01/08 08:09:52;;;;;;;3.70;3.23;;;1.10;99.90;0.80;100002.00;;;;5011693;27;86984;-70
2022/01/08 08:12:18;;;;;;;6.80;4.27;;;1.80;99.90;0.80;100006.00;;;;5006557;27;117259;-71
2022/01/08 08:14:44;;;;;;;6.97;3.97;;;1.90;99.90;0.80;99995.00;;;;5000206;27;118735;-71
2022/01/08 08:17:09;;;;;;;7.13;4.50;;;1.70;99.90;0.80;99999.00;;;;5004727;27;109660;-71
2022/01/08 08:19:35;;;;;;;6.77;4.47;;;1.10;99.90;0.80;100004.00;;;;5010064;27;106964;-71
2022/01/08 08:22:01;;;;;;;7.30;4.60;;;1.10;99.90;0.80;100002.00;;;;4999868;27;116964;-70
2022/01/08 08:24:26;;;;;;;8.17;4.77;;;1.10;99.90;0.80;100008.00;;;;4994607;27;117784;-69
2022/01/08 08:26:52;;;;;;;8.27;4.47;;;1.10;99.90;0.90;99998.00;;;;4995261;27;111005;-70
2022/01/08 08:29:18;;;;;;;9.20;5.63;;;1.70;99.90;0.90;99998.00;;;;5000241;27;108186;-70
2022/01/08 08:31:43;;;;;;;11.70;5.40;;;1.10;99.90;1.00;100004.00;;;;5012391;27;117553;-70
2022/01/08 08:34:09;;;;;;;10.93;5.70;;;1.50;99.90;1.00;99998.00;;;;4991872;27;117772;-70
2022/01/08 08:36:35;;;;;;;9.37;5.27;;;1.30;99.90;1.00;100004.00;;;;5007884;27;87985;-70
2022/01/08 08:39:01;;;;;;;8.07;5.27;;;1.70;99.90;1.10;100008.00;;;;5008724;27;107878;-70
2022/01/08 08:41:26;;;;;;;5.23;4.33;;;2.00;99.90;1.10;100003.00;;;;5011363;27;92525;-70
2022/01/08 08:43:52;;;;;;;8.37;5.37;;;2.10;99.90;1.10;100006.00;;;;4993687;27;92580;-71
2022/01/08 08:46:18;;;;;;;4.23;3.43;;;2.20;99.90;1.10;100000.00;;;;4989836;27;109947;-70
2022/01/08 08:48:44;;;;;;;5.93;4.67;;;1.40;99.90;1.20;100004.00;;;;5009498;27;102076;-70
2022/01/08 08:51:10;;;;;;;8.33;4.47;;;2.00;99.90;1.20;100003.00;;;;4994978;27;91041;-70
2022/01/08 08:53:36;;;;;;;5.67;4.73;;;1.50;99.90;1.20;100010.00;;;;4985820;27;113289;-70
2022/01/08 08:56:02;;;;;;;4.10;3.67;;;1.90;99.90;1.20;100014.00;;;;5006124;27;111291;-70
2022/01/08 08:58:27;;;;;;;6.40;3.73;;;1.60;99.90;1.30;100009.00;;;;5000102;27;87103;-71
2022/01/08 09:00:53;;;;;;;5.37;3.37;;;1.50;99.90;1.30;99999.00;;;;5013012;27;118282;-70
2022/01/08 09:03:20;;;;;;;5.83;3.43;;;1.60;99.90;1.30;100010.00;;;;5003240;27;117412;-71
2022/01/08 09:05:46;;;;;;;5.20;2.40;;;1.70;99.90;1.30;100011.00;;;;4984902;27;88926;-73
2022/01/08 09:08:12;;;;;;;4.03;2.70;;;2.10;99.90;1.30;100013.00;;;;4967113;27;109084;-71
2022/01/08 09:10:37;;;;;;;4.33;2.70;;;2.30;99.90;1.30;100003.00;;;;5011549;27;118231;-72
2022/01/08 09:13:03;;;;;;;4.20;2.87;;;1.80;99.90;1.40;100014.00;;;;5004024;27;116876;-71
2022/01/08 09:15:29;;;;;;;4.03;2.37;;;1.60;99.90;1.40;100015.00;;;;5012820;27;110107;-71
2022/01/08 09:17:57;;;;;;;3.60;2.83;;;1.60;99.90;1.40;100013.00;;;;5000048;27;88134;-71
2022/01/08 09:20:26;;;;;;;2.50;2.23;;;2.00;99.90;1.50;100011.00;;;;4993027;27;87984;-71
2022/01/08 09:22:52;;;;;;;8.90;4.53;;;1.60;99.90;1.50;100018.00;;;;4975861;27;89115;-71
2022/01/08 09:25:19;;;;;;;6.23;3.60;;;1.70;99.90;1.50;100011.00;;;;4995099;27;88129;-71
2022/01/08 09:27:44;;;;;;;7.73;3.80;;;2.40;99.90;1.60;100013.00;;;;4976189;28;88065;-71
2022/01/08 09:30:10;;;;;;;4.97;3.00;;;2.30;99.90;1.60;100007.00;;;;5007158;27;118656;-71
2022/01/08 09:32:37;;;;;;;6.07;3.47;;;1.90;99.90;1.70;100009.00;;;;4988837;27;119568;-71
2022/01/08 09:35:04;;;;;;;4.73;2.70;;;1.90;99.90;1.70;100017.00;;;;4990323;27;88092;-71
2022/01/08 09:37:29;;;;;;;3.50;3.20;;;1.90;99.90;1.70;100015.00;;;;4998921;27;88326;-71
2022/01/08 09:39:55;;;;;;;5.27;3.23;;;1.90;99.90;1.80;100010.00;;;;4995366;27;118248;-71
2022/01/08 09:42:21;;;;;;;4.93;2.47;;;2.70;99.90;1.80;100002.00;;;;5003538;27;88582;-71
2022/01/08 09:44:47;;;;;;;5.07;2.73;;;2.90;99.90;1.80;100011.00;;;;5007323;27;109677;-70
2022/01/08 09:47:13;;;;;;;5.37;3.10;;;2.60;99.90;1.80;100003.00;;;;5004273;27;89373;-70
2022/01/08 09:49:40;;;;;;;4.27;3.27;;;2.60;99.90;1.80;100006.00;;;;5004439;27;89519;-70
2022/01/08 09:52:07;;;;;;;3.53;2.20;;;2.00;99.90;1.80;100006.00;;;;5002484;27;88585;-69
2022/01/08 09:54:34;;;;;;;4.70;2.83;;;2.60;99.90;1.80;100010.00;;;;4995565;27;88545;-71
2022/01/08 09:57:00;;;;;;;3.57;3.17;;;2.40;99.90;1.80;99998.00;;;;5003173;27;87916;-71
2022/01/08 09:59:28;;;;;;;5.23;2.70;;;2.10;99.90;1.80;99994.00;;;;4985527;27;88311;-72
2022/01/08 10:02:00;;;;;;;4.20;2.90;;;2.10;99.90;1.80;100008.00;;;;4994380;27;88234;-70
2022/01/08 10:04:34;;;;;;;3.63;2.77;;;2.10;99.90;1.90;99980.00;;;;4971771;27;88066;-70
2022/01/08 10:07:16;;;;;;;5.43;3.30;;;2.10;99.90;1.90;99995.00;;;;5002971;27;87949;-69
2022/01/08 10:10:10;;;;;;;3.73;3.00;;;2.00;99.90;1.90;99994.00;;;;5008433;27;88057;-69
2022/01/08 10:13:00;;;;;;;4.70;3.07;;;2.20;99.90;1.90;99995.00;;;;4995382;27;87154;-68
2022/01/08 10:18:33;;;;;;;5.13;3.00;;;2.20;99.90;2.00;99993.00;;;;4999719;27;87877;-71
2022/01/08 10:21:21;;;;;;;3.07;2.77;;;3.00;99.90;2.00;99992.00;;;;4988962;27;89225;-71
2022/01/08 10:23:57;;;;;;;5.40;3.20;;;2.30;99.90;2.00;99987.00;;;;5004061;27;88781;-70
2022/01/08 10:26:31;;;;;;;6.57;3.87;;;2.80;99.90;2.00;99987.00;;;;5012622;27;87705;-71
2022/01/08 10:28:59;;;;;;;5.37;3.97;;;2.30;99.90;2.00;99986.00;;;;4993492;27;87922;-71
2022/01/08 10:31:30;;;;;;;6.43;3.93;;;2.80;99.90;2.00;99972.00;;;;5003778;27;102898;-71
2022/01/08 10:34:18;;;;;;;9.67;4.70;;;2.20;99.90;1.90;99978.00;;;;5012423;27;88867;-71
2022/01/08 10:36:56;;;;;;;5.20;4.70;;;2.20;99.90;2.00;99975.00;;;;4992971;27;87948;-71
2022/01/08 10:39:40;;;;;;;14.77;7.83;;;2.20;99.90;2.00;99968.00;;;;5000277;27;87683;-71
2022/01/08 10:42:17;;;;;;;12.20;6.83;;;2.20;99.90;2.00;99971.00;;;;4983000;28;88617;-70
2022/01/08 10:44:47;;;;;;;8.37;5.17;;;2.20;99.90;2.00;99967.00;;;;5005037;27;107046;-70
2022/01/08 10:47:17;;;;;;;10.40;4.90;;;2.20;99.90;2.00;99971.00;;;;5006136;27;88956;-70
2022/01/08 10:50:05;;;;;;;6.03;4.03;;;3.10;99.90;2.00;99971.00;;;;4992915;27;88176;-69
2022/01/08 10:52:42;;;;;;;7.00;4.83;;;2.20;99.90;2.00;99967.00;;;;4970212;27;90023;-70
2022/01/08 10:55:08;;;;;;;6.27;4.10;;;2.30;99.90;2.10;99960.00;;;;5001166;27;88425;-69
2022/01/08 10:57:37;;;;;;;14.67;8.60;;;2.30;99.90;2.00;99958.00;;;;5001660;27;110633;-69
2022/01/08 11:00:14;;;;;;;9.60;5.70;;;2.30;99.90;2.00;99958.00;;;;5012069;27;87844;-69
2022/01/08 11:02:41;;;;;;;8.57;6.10;;;2.30;99.90;2.00;99952.00;;;;5008512;27;91767;-71
2022/01/08 11:05:29;;;;;;;6.43;4.80;;;2.20;99.90;2.00;99956.00;;;;5001068;27;87155;-71
2022/01/08 11:08:13;;;;;;;7.97;5.43;;;2.20;99.90;2.00;99959.00;;;;4996263;27;87689;-71
2022/01/08 11:10:39;;;;;;;7.13;4.97;;;2.30;99.90;2.10;99959.00;;;;4992691;27;88228;-72
2022/01/08 11:13:09;;;;;;;4.30;3.80;;;2.30;99.90;2.10;99960.00;;;;4999970;27;105293;-71
2022/01/08 11:15:48;;;;;;;4.83;4.17;;;2.40;99.90;2.10;99962.00;;;;4993274;27;88849;-71
2022/01/08 11:18:19;;;;;;;5.97;4.47;;;2.30;99.90;2.10;99970.00;;;;4982846;27;88102;-70
2022/01/08 11:20:46;;;;;;;8.13;5.17;;;2.60;99.90;2.10;99958.00;;;;4993034;27;88070;-70
2022/01/08 11:23:14;;;;;;;4.67;4.17;;;2.30;99.90;2.20;99949.00;;;;5003071;27;89211;-69
2022/01/08 11:25:41;;;;;;;7.70;5.93;;;2.60;99.90;2.20;99948.00;;;;4998368;27;87869;-69